MIM weather

Public forecast

Using degrees Celsius for public forecast. Weather courtesy of forecast.io.

Current aviation weather report (METAR) for Merimbula Airport

Retrieved 2020/08/15 11:00 UTC (17 minutes ago):

YMER 151100Z AUTO 23011KT 9999 // BKN105 14/09 Q1005

Closest aviation forecast (TAF) to Merimbula Airport

Closest forecast is Canberra International Airport, 102.1 nm (189.1 km) NNW. Retrieved 2020/08/15 06:36 UTC (5 hours ago):

TAF YSCB 150533Z 1506/1606 29010KT 9999 -SHRA SCT030 FM151200 29008KT 9999 -SHRA NSC FM151800 30010KT 9999 NSW SCT020